Time;durP1;ratioP1;P1;durP2;ratioP2;P2;SDS_P1;SDS_P2;PMS_P1;PMS_P2;Temp;Humidity;BMP_temperature;BMP_pressure;BME280_temperature;BME280_humidity;BME280_pressure;Samples;Min_cycle;Max_cycle;Signal;HPM_P1;HPM_P2
2022/09/27 00:02:05;;;;;;;22.05;18.10;;;25.00;99.90;;;;;;1825371;77;21704;-81
2022/09/27 00:04:36;;;;;;;23.47;19.05;;;25.00;99.90;;;;;;1828137;77;21146;-81
2022/09/27 00:07:09;;;;;;;24.40;20.77;;;25.10;99.90;;;;;;1787879;78;21166;-81
2022/09/27 00:09:40;;;;;;;27.02;19.70;;;25.00;99.90;;;;;;1820464;77;21104;-81
2022/09/27 00:12:11;;;;;;;26.37;19.23;;;25.00;99.90;;;;;;1829642;77;21091;-82
2022/09/27 00:14:42;;;;;;;27.07;19.32;;;25.00;99.90;;;;;;1825997;77;21605;-82
2022/09/27 00:17:12;;;;;;;23.00;17.45;;;25.00;99.90;;;;;;1823222;77;21174;-81
2022/09/27 00:19:43;;;;;;;22.50;19.10;;;25.00;99.90;;;;;;1820229;77;21219;-81
2022/09/27 00:22:14;;;;;;;20.92;18.35;;;25.00;99.90;;;;;;1826843;77;21076;-82
2022/09/27 00:24:45;;;;;;;22.45;19.05;;;25.00;99.90;;;;;;1839682;77;21649;-82
2022/09/27 00:27:16;;;;;;;25.60;19.70;;;25.10;99.90;;;;;;1816336;77;21092;-83
2022/09/27 00:29:48;;;;;;;25.85;18.82;;;25.10;99.90;;;;;;1816491;77;22141;-82
2022/09/27 00:32:19;;;;;;;25.88;21.62;;;25.10;99.90;;;;;;1802615;79;21085;-82
2022/09/27 00:34:50;;;;;;;45.67;31.57;;;25.20;99.90;;;;;;1785780;79;21237;-82
2022/09/27 00:37:21;;;;;;;46.60;33.23;;;25.20;99.90;;;;;;1824577;77;21679;-83
2022/09/27 00:39:52;;;;;;;36.10;25.50;;;25.10;99.90;;;;;;1814075;77;21235;-82
2022/09/27 00:42:23;;;;;;;49.85;32.10;;;25.10;99.90;;;;;;1846772;76;21124;-82
2022/09/27 00:44:56;;;;;;;36.75;26.12;;;25.10;99.90;;;;;;1871219;75;21549;-82
2022/09/27 00:47:29;;;;;;;35.25;25.82;;;25.10;99.90;;;;;;1846001;76;21201;-81
2022/09/27 00:50:02;;;;;;;33.28;25.55;;;25.20;99.90;;;;;;1819925;77;21622;-82
2022/09/27 00:52:36;;;;;;;34.35;25.55;;;25.20;99.90;;;;;;1789476;78;21571;-83
2022/09/27 00:55:09;;;;;;;35.00;26.35;;;25.30;99.90;;;;;;1818388;77;21198;-81
2022/09/27 00:57:41;;;;;;;32.60;25.60;;;25.30;99.90;;;;;;1814278;77;21169;-81
2022/09/27 01:00:14;;;;;;;31.37;23.87;;;25.30;99.90;;;;;;1826467;77;21174;-81
2022/09/27 01:02:47;;;;;;;31.57;24.45;;;25.30;99.90;;;;;;1824201;77;21476;-81
2022/09/27 01:05:20;;;;;;;26.97;22.75;;;25.40;99.90;;;;;;1820530;77;21184;-83
2022/09/27 01:07:55;;;;;;;30.35;23.85;;;25.40;99.90;;;;;;1819345;77;21146;-81
2022/09/27 01:10:26;;;;;;;26.90;21.68;;;25.50;99.90;;;;;;1818918;77;21239;-81
2022/09/27 01:12:59;;;;;;;26.60;22.73;;;25.50;99.90;;;;;;1825253;77;22443;-82
2022/09/27 01:15:32;;;;;;;37.58;28.00;;;25.50;99.90;;;;;;1816284;77;21302;-80
2022/09/27 01:18:06;;;;;;;34.33;25.80;;;25.60;99.90;;;;;;1818253;77;21140;-82
2022/09/27 01:20:40;;;;;;;29.92;24.43;;;25.60;99.90;;;;;;1826145;77;21618;-80
2022/09/27 01:23:13;;;;;;;27.27;23.30;;;25.70;99.90;;;;;;1821695;77;21260;-82
2022/09/27 01:25:46;;;;;;;27.70;22.20;;;25.70;99.90;;;;;;1858315;75;21244;-82
2022/09/27 01:28:19;;;;;;;31.17;23.98;;;25.80;99.90;;;;;;1861423;75;21244;-82
2022/09/27 01:30:51;;;;;;;27.40;22.17;;;25.80;99.90;;;;;;1857698;76;21608;-81
2022/09/27 01:33:24;;;;;;;23.87;21.27;;;25.80;99.90;;;;;;1846254;76;21132;-83
2022/09/27 01:35:58;;;;;;;24.82;20.50;;;25.90;99.90;;;;;;1869010;75;21219;-81
2022/09/27 01:38:31;;;;;;;23.27;19.85;;;25.90;99.90;;;;;;1874761;75;21248;-81
2022/09/27 01:41:05;;;;;;;26.10;21.12;;;25.90;99.90;;;;;;1814560;77;21183;-74
2022/09/27 01:43:38;;;;;;;25.48;19.57;;;25.80;99.90;;;;;;1809929;78;21178;-76
2022/09/27 01:46:11;;;;;;;23.75;19.35;;;25.80;99.90;;;;;;1848901;76;21627;-73
2022/09/27 01:48:45;;;;;;;24.02;20.02;;;25.80;99.90;;;;;;1850248;76;21176;-74
2022/09/27 01:51:18;;;;;;;23.87;19.55;;;25.80;99.90;;;;;;1857625;76;21141;-74
2022/09/27 01:53:51;;;;;;;27.00;19.48;;;25.80;99.90;;;;;;1840032;76;21770;-73
2022/09/27 01:56:24;;;;;;;25.57;19.60;;;25.90;99.90;;;;;;1845849;76;21546;-73
2022/09/27 01:58:58;;;;;;;23.22;18.50;;;25.90;99.90;;;;;;1855877;76;21177;-73
2022/09/27 02:01:31;;;;;;;20.45;18.15;;;25.90;99.90;;;;;;1844225;76;21080;-74
2022/09/27 02:04:04;;;;;;;21.65;18.15;;;25.90;99.90;;;;;;1842016;77;21561;-72
2022/09/27 02:06:37;;;;;;;20.95;18.23;;;26.00;99.90;;;;;;1802096;79;21233;-73
2022/09/27 02:09:10;;;;;;;27.48;18.52;;;26.00;99.90;;;;;;1848243;76;21140;-74
2022/09/27 02:11:44;;;;;;;22.45;18.77;;;26.00;99.90;;;;;;1848901;76;21146;-74
2022/09/27 02:14:15;;;;;;;21.85;18.48;;;26.10;99.90;;;;;;1845642;76;21609;-73
2022/09/27 02:16:49;;;;;;;20.95;18.75;;;26.10;99.90;;;;;;1851754;76;21240;-74
2022/09/27 02:19:21;;;;;;;20.55;18.35;;;26.20;99.90;;;;;;1817142;77;21166;-74
2022/09/27 02:21:55;;;;;;;22.42;19.80;;;26.20;99.90;;;;;;1812489;77;21168;-74
2022/09/27 02:24:29;;;;;;;21.37;19.02;;;26.20;99.90;;;;;;1851828;76;22351;-74
2022/09/27 02:27:02;;;;;;;20.65;17.35;;;26.30;99.90;;;;;;1848295;76;21117;-73
2022/09/27 02:29:36;;;;;;;21.40;16.82;;;26.40;99.90;;;;;;1813506;77;21182;-73
2022/09/27 02:32:07;;;;;;;19.70;16.70;;;26.40;99.90;;;;;;1849447;76;21136;-74
2022/09/27 02:34:40;;;;;;;19.80;17.32;;;26.50;99.90;;;;;;1812748;77;21652;-73
2022/09/27 02:37:12;;;;;;;20.37;16.75;;;26.50;99.90;;;;;;1842408;76;21174;-74
2022/09/27 02:39:43;;;;;;;21.77;19.55;;;26.60;99.90;;;;;;1818292;77;21247;-74
2022/09/27 02:42:14;;;;;;;19.45;17.32;;;26.70;99.90;;;;;;1830829;76;21681;-74
2022/09/27 02:44:45;;;;;;;21.17;18.30;;;26.80;99.90;;;;;;1831311;77;21189;-74
2022/09/27 02:47:18;;;;;;;21.82;19.25;;;26.90;99.90;;;;;;1871601;75;21183;-74
2022/09/27 02:49:51;;;;;;;20.90;17.73;;;27.10;99.90;;;;;;1855639;76;21754;-74
2022/09/27 02:52:25;;;;;;;20.25;17.65;;;27.20;99.90;;;;;;1852201;76;21147;-74
2022/09/27 02:54:57;;;;;;;20.50;17.20;;;27.30;99.90;;;;;;1851136;76;21743;-74
2022/09/27 02:57:31;;;;;;;21.48;19.12;;;27.40;99.90;;;;;;1852377;76;21643;-75
2022/09/27 03:00:06;;;;;;;19.10;17.20;;;27.60;99.90;;;;;;1820269;78;21138;-73
2022/09/27 03:02:37;;;;;;;24.98;18.27;;;27.70;99.90;;;;;;1826553;77;21575;-74
2022/09/27 03:05:10;;;;;;;24.25;19.17;;;27.80;99.90;;;;;;1867583;75;21558;-74
2022/09/27 03:07:41;;;;;;;19.48;17.37;;;27.90;99.90;;;;;;1820763;77;21609;-73
2022/09/27 03:10:14;;;;;;;18.73;16.75;;;28.00;99.90;;;;;;1837385;77;21188;-73
2022/09/27 03:12:46;;;;;;;21.55;16.85;;;28.00;99.90;;;;;;1861242;75;21086;-73
2022/09/27 03:15:17;;;;;;;19.70;16.48;;;28.00;99.90;;;;;;1852741;76;21264;-72
2022/09/27 03:17:48;;;;;;;20.37;16.90;;;28.10;99.90;;;;;;1857239;76;21170;-73
2022/09/27 03:20:19;;;;;;;21.23;17.40;;;28.20;99.90;;;;;;1847468;76;21161;-71
2022/09/27 03:22:50;;;;;;;22.65;17.67;;;28.20;99.90;;;;;;1827060;77;21697;-70
2022/09/27 03:25:20;;;;;;;21.27;18.45;;;28.30;99.90;;;;;;1796396;78;21783;-71
2022/09/27 03:27:51;;;;;;;22.05;17.85;;;28.40;99.90;;;;;;1870973;75;21220;-71
2022/09/27 03:30:23;;;;;;;21.48;16.97;;;28.50;99.90;;;;;;1856211;76;21133;-72
2022/09/27 03:33:13;;;;;;;19.57;17.05;;;28.60;99.90;;;;;;1822478;77;21196;-72
2022/09/27 03:35:44;;;;;;;23.75;17.07;;;28.60;99.90;;;;;;1870274;75;21147;-73
2022/09/27 03:38:15;;;;;;;17.32;15.50;;;28.70;99.90;;;;;;1865881;75;22247;-71
2022/09/27 03:40:45;;;;;;;18.00;15.78;;;28.70;99.90;;;;;;1871326;75;21245;-71
2022/09/27 03:43:17;;;;;;;21.10;16.90;;;28.70;99.90;;;;;;1860340;76;21628;-71
2022/09/27 03:45:49;;;;;;;19.15;16.10;;;28.80;99.90;;;;;;1849365;76;21640;-71
2022/09/27 03:48:20;;;;;;;16.90;15.20;;;28.90;99.90;;;;;;1845485;76;21228;-72
2022/09/27 03:50:52;;;;;;;19.85;16.70;;;29.00;99.30;;;;;;1862859;76;21092;-73
2022/09/27 03:53:42;;;;;;;19.70;16.57;;;29.00;99.70;;;;;;1862266;76;21542;-71
2022/09/27 03:56:13;;;;;;;19.65;16.90;;;29.10;99.80;;;;;;1845419;76;21667;-70
2022/09/27 03:58:44;;;;;;;20.95;18.77;;;29.10;99.30;;;;;;1849358;77;21154;-72
2022/09/27 04:01:15;;;;;;;22.48;19.32;;;29.10;98.90;;;;;;1847992;77;21630;-71
2022/09/27 04:03:46;;;;;;;25.48;19.80;;;29.10;98.70;;;;;;1849104;76;21145;-72
2022/09/27 04:06:17;;;;;;;21.65;19.20;;;29.10;98.80;;;;;;1846531;77;21178;-72
2022/09/27 04:08:51;;;;;;;20.70;17.32;;;29.10;98.80;;;;;;1842258;77;21686;-72
2022/09/27 04:11:22;;;;;;;21.17;18.05;;;29.10;98.70;;;;;;1853242;77;21153;-72
2022/09/27 04:13:55;;;;;;;21.75;18.42;;;29.20;99.10;;;;;;1856825;76;21614;-73
2022/09/27 04:16:26;;;;;;;21.12;18.70;;;29.20;98.90;;;;;;1846480;77;21158;-71
2022/09/27 04:18:57;;;;;;;21.37;18.92;;;29.40;98.40;;;;;;1846675;77;21154;-72
2022/09/27 04:21:28;;;;;;;23.25;17.95;;;29.60;98.10;;;;;;1849708;77;21185;-73
2022/09/27 04:23:59;;;;;;;22.50;19.75;;;29.80;97.20;;;;;;1845434;77;21176;-71
2022/09/27 04:26:29;;;;;;;21.42;18.82;;;29.90;98.00;;;;;;1845858;77;21221;-72
2022/09/27 04:29:00;;;;;;;27.50;21.30;;;30.00;96.50;;;;;;1848237;77;21179;-71
2022/09/27 04:31:31;;;;;;;22.25;20.02;;;29.90;96.50;;;;;;1844325;76;21193;-72
2022/09/27 04:34:02;;;;;;;22.13;19.85;;;29.90;96.80;;;;;;1846127;76;21614;-72
2022/09/27 04:36:33;;;;;;;21.77;19.27;;;29.80;96.80;;;;;;1830791;77;21232;-71
2022/09/27 04:39:06;;;;;;;22.55;19.35;;;29.80;96.40;;;;;;1766364;79;21194;-73
2022/09/27 04:41:38;;;;;;;21.85;19.62;;;29.80;97.10;;;;;;1840387;76;21178;-71
2022/09/27 04:44:10;;;;;;;25.72;19.98;;;29.80;96.90;;;;;;1837811;77;21240;-72
2022/09/27 04:46:41;;;;;;;25.08;20.72;;;29.70;97.60;;;;;;1841949;77;21185;-71
2022/09/27 04:49:11;;;;;;;23.90;21.37;;;29.70;97.10;;;;;;1841175;76;21503;-72
2022/09/27 04:51:42;;;;;;;22.52;20.25;;;29.70;97.00;;;;;;1838757;77;21114;-71
2022/09/27 04:54:13;;;;;;;23.92;20.75;;;29.70;97.10;;;;;;1838469;77;21124;-72
2022/09/27 04:56:44;;;;;;;23.80;20.92;;;29.70;96.70;;;;;;1839150;76;21138;-73
2022/09/27 04:59:15;;;;;;;22.80;20.45;;;29.80;98.60;;;;;;1842019;76;21138;-73
2022/09/27 05:01:46;;;;;;;22.17;19.95;;;29.90;96.70;;;;;;1839633;77;21111;-73
2022/09/27 05:04:17;;;;;;;22.48;19.55;;;29.80;96.20;;;;;;1842898;77;21119;-73
2022/09/27 05:06:47;;;;;;;22.27;19.40;;;29.70;96.10;;;;;;1834722;77;21185;-72
2022/09/27 05:09:20;;;;;;;21.70;18.12;;;29.70;95.70;;;;;;1846039;77;21217;-72
2022/09/27 05:11:51;;;;;;;20.17;18.05;;;29.70;95.90;;;;;;1844821;77;21257;-73
2022/09/27 05:14:22;;;;;;;20.20;18.17;;;29.80;95.70;;;;;;1844378;77;21626;-73
2022/09/27 05:16:54;;;;;;;22.40;18.75;;;29.80;95.90;;;;;;1842980;77;21973;-73
2022/09/27 05:19:25;;;;;;;21.00;18.90;;;29.70;96.00;;;;;;1848174;76;21268;-73
2022/09/27 05:21:56;;;;;;;22.58;19.30;;;29.60;95.60;;;;;;1841463;76;21704;-73
2022/09/27 05:24:27;;;;;;;25.37;19.95;;;29.60;95.80;;;;;;1840016;76;21150;-74
2022/09/27 05:26:58;;;;;;;23.50;19.55;;;29.70;95.20;;;;;;1838317;76;21233;-73
2022/09/27 05:29:29;;;;;;;20.40;18.02;;;29.90;94.80;;;;;;1842184;77;21187;-72
2022/09/27 05:32:00;;;;;;;20.43;18.40;;;30.00;94.40;;;;;;1839304;77;21166;-73
2022/09/27 05:34:31;;;;;;;19.48;17.48;;;30.20;94.00;;;;;;1840830;76;21127;-72
2022/09/27 05:37:02;;;;;;;21.93;17.75;;;30.40;93.40;;;;;;1843183;77;21170;-72
2022/09/27 05:39:33;;;;;;;20.00;17.10;;;30.50;93.60;;;;;;1842955;77;21119;-73
2022/09/27 05:42:06;;;;;;;20.12;17.85;;;30.50;93.80;;;;;;1839707;76;21146;-72
2022/09/27 05:44:37;;;;;;;19.48;17.23;;;30.50;93.60;;;;;;1831680;77;21107;-72
2022/09/27 05:47:09;;;;;;;18.77;16.70;;;30.40;93.40;;;;;;1838137;77;21708;-73
2022/09/27 05:49:39;;;;;;;17.95;16.10;;;30.30;92.50;;;;;;1838789;77;21128;-73
2022/09/27 05:52:10;;;;;;;19.10;17.25;;;30.30;92.70;;;;;;1845593;76;21643;-73
2022/09/27 05:54:42;;;;;;;20.57;18.05;;;30.30;92.80;;;;;;1839092;76;21685;-72
2022/09/27 05:57:13;;;;;;;19.40;17.27;;;30.30;92.60;;;;;;1822305;77;21139;-73
2022/09/27 05:59:45;;;;;;;21.02;17.10;;;30.30;92.70;;;;;;1811920;77;21104;-73
2022/09/27 06:02:17;;;;;;;21.87;17.62;;;30.30;92.70;;;;;;1814148;78;21115;-73
2022/09/27 06:04:48;;;;;;;19.80;17.42;;;30.20;93.50;;;;;;1826697;77;21197;-73
2022/09/27 06:07:19;;;;;;;21.65;16.80;;;30.10;93.50;;;;;;1817616;77;21108;-72
2022/09/27 06:09:50;;;;;;;19.55;17.35;;;30.10;93.40;;;;;;1836257;77;21184;-73
2022/09/27 06:12:22;;;;;;;18.62;16.70;;;30.20;93.80;;;;;;1818159;77;21107;-73
2022/09/27 06:14:53;;;;;;;19.42;17.20;;;30.30;93.50;;;;;;1825503;77;21151;-73
2022/09/27 06:17:23;;;;;;;19.40;17.15;;;30.30;93.60;;;;;;1822877;78;21190;-73
2022/09/27 06:19:54;;;;;;;17.75;15.95;;;30.30;92.70;;;;;;1816962;77;21255;-72
2022/09/27 06:22:26;;;;;;;19.25;16.65;;;30.40;91.80;;;;;;1822292;78;21217;-73
2022/09/27 06:24:56;;;;;;;18.00;16.20;;;30.50;92.20;;;;;;1835563;77;21673;-72
2022/09/27 06:27:27;;;;;;;17.15;15.25;;;30.50;91.80;;;;;;1824061;78;21178;-72
2022/09/27 06:29:58;;;;;;;17.82;15.98;;;30.50;91.50;;;;;;1822226;77;21961;-72
2022/09/27 06:32:29;;;;;;;22.05;17.10;;;30.50;91.80;;;;;;1823507;78;21625;-72
2022/09/27 06:34:59;;;;;;;19.12;15.90;;;30.40;92.10;;;;;;1835152;77;21145;-73
2022/09/27 06:37:30;;;;;;;18.17;15.78;;;30.30;92.50;;;;;;1823062;77;21166;-73
2022/09/27 06:40:02;;;;;;;19.75;16.85;;;30.30;92.60;;;;;;1833037;77;21226;-72
2022/09/27 06:42:33;;;;;;;17.75;15.95;;;30.20;92.60;;;;;;1825127;78;21142;-73
2022/09/27 06:45:05;;;;;;;19.12;16.67;;;30.20;92.70;;;;;;1834272;77;21138;-72
2022/09/27 06:47:37;;;;;;;20.20;15.03;;;30.30;93.00;;;;;;1816926;78;21187;-73
2022/09/27 06:50:08;;;;;;;17.70;15.90;;;30.30;92.90;;;;;;1821884;77;21564;-73
2022/09/27 06:52:41;;;;;;;17.20;15.40;;;30.30;92.90;;;;;;1821235;78;21142;-73
2022/09/27 06:55:11;;;;;;;19.85;15.25;;;30.30;92.90;;;;;;1830556;77;21166;-72
2022/09/27 07:00:25;;;;;;;18.27;15.90;;;30.30;93.00;;;;;;1808617;78;21616;-71
2022/09/27 07:02:47;;;;;;;17.92;15.75;;;30.20;93.20;;;;;;1779156;80;21206;-72
2022/09/27 07:05:18;;;;;;;17.92;15.58;;;30.20;92.70;;;;;;1777327;80;21111;-72
2022/09/27 07:07:55;;;;;;;19.07;15.80;;;30.30;93.10;;;;;;1780788;80;21254;-73
2022/09/27 07:10:21;;;;;;;18.87;15.35;;;30.40;93.20;;;;;;1778906;79;21111;-73
2022/09/27 07:12:53;;;;;;;17.50;15.18;;;30.50;92.80;;;;;;1773169;80;21204;-73
2022/09/27 07:15:24;;;;;;;16.77;14.87;;;30.50;92.60;;;;;;1767110;81;21154;-73
2022/09/27 07:17:58;;;;;;;16.75;14.23;;;30.60;92.60;;;;;;1810287;78;21726;-73
2022/09/27 07:20:30;;;;;;;17.12;14.65;;;30.60;92.30;;;;;;1769133;79;21219;-73
2022/09/27 07:23:00;;;;;;;17.05;15.08;;;30.60;92.20;;;;;;1792145;79;21205;-73
2022/09/27 07:25:32;;;;;;;17.73;14.75;;;30.80;92.50;;;;;;1803870;78;21178;-73
2022/09/27 07:28:05;;;;;;;17.70;15.70;;;30.80;92.40;;;;;;1809537;78;21174;-73
2022/09/27 07:30:37;;;;;;;18.75;16.32;;;30.80;92.50;;;;;;1780944;79;21595;-73
2022/09/27 07:33:08;;;;;;;17.90;16.00;;;30.80;92.40;;;;;;1782048;79;21699;-73
2022/09/27 07:35:40;;;;;;;18.25;16.30;;;30.80;92.50;;;;;;1802654;79;21070;-73
2022/09/27 07:38:12;;;;;;;16.25;14.55;;;30.80;92.30;;;;;;1802378;79;21118;-73
2022/09/27 07:40:44;;;;;;;16.23;14.53;;;30.80;92.30;;;;;;1774023;79;21201;-73
2022/09/27 07:43:15;;;;;;;17.95;14.75;;;30.70;91.80;;;;;;1811373;78;21186;-73
2022/09/27 07:45:46;;;;;;;17.10;15.40;;;30.70;91.70;;;;;;1836958;77;21641;-73
2022/09/27 07:48:18;;;;;;;18.35;14.05;;;30.60;91.70;;;;;;1843629;77;21669;-73
2022/09/27 07:50:48;;;;;;;16.48;14.50;;;30.60;92.00;;;;;;1838399;76;21130;-72
2022/09/27 07:53:19;;;;;;;17.40;14.75;;;30.50;92.00;;;;;;1842339;77;21166;-73
2022/09/27 07:55:52;;;;;;;16.27;14.68;;;30.50;92.30;;;;;;1839431;77;21144;-73
2022/09/27 07:58:23;;;;;;;18.60;15.03;;;30.40;92.40;;;;;;1834268;77;21232;-72
2022/09/27 08:00:55;;;;;;;18.37;14.13;;;30.40;92.60;;;;;;1833573;77;21182;-72
2022/09/27 08:03:25;;;;;;;17.80;15.10;;;30.30;92.40;;;;;;1838136;76;21177;-72
2022/09/27 08:05:56;;;;;;;15.93;14.23;;;30.30;92.40;;;;;;1839606;77;21244;-74
2022/09/27 08:08:28;;;;;;;17.32;14.73;;;30.30;92.40;;;;;;1839341;77;21183;-73
2022/09/27 08:10:58;;;;;;;16.02;14.43;;;30.30;92.60;;;;;;1839822;77;21095;-73
2022/09/27 08:13:29;;;;;;;17.40;15.48;;;30.30;92.80;;;;;;1837853;77;21119;-73
2022/09/27 08:16:02;;;;;;;16.52;14.83;;;30.30;92.60;;;;;;1838374;77;21179;-73
2022/09/27 08:18:32;;;;;;;18.67;15.58;;;30.30;92.60;;;;;;1837830;76;21190;-73
2022/09/27 08:21:03;;;;;;;16.65;14.00;;;30.30;92.80;;;;;;1836687;76;21744;-73
2022/09/27 08:23:35;;;;;;;18.32;15.10;;;30.30;92.80;;;;;;1833086;77;21196;-73
2022/09/27 08:26:06;;;;;;;17.23;15.05;;;30.30;92.70;;;;;;1831230;77;21208;-72
2022/09/27 08:28:37;;;;;;;16.93;14.93;;;30.30;92.90;;;;;;1834659;77;21144;-72
2022/09/27 08:31:08;;;;;;;17.62;15.55;;;30.30;92.40;;;;;;1823039;77;21092;-73
2022/09/27 08:33:39;;;;;;;18.07;15.63;;;30.30;92.60;;;;;;1799603;79;21180;-72
2022/09/27 08:36:12;;;;;;;18.55;15.13;;;30.30;92.50;;;;;;1830001;77;21142;-73
2022/09/27 08:38:43;;;;;;;17.65;15.00;;;30.30;92.50;;;;;;1828026;77;21702;-72
2022/09/27 08:41:16;;;;;;;16.62;14.83;;;30.30;92.60;;;;;;1813037;78;21198;-71
2022/09/27 08:43:48;;;;;;;20.12;14.38;;;30.30;92.50;;;;;;1820201;78;21182;-73
2022/09/27 08:46:21;;;;;;;19.50;14.60;;;30.30;92.40;;;;;;1792457;79;21165;-73
2022/09/27 08:48:54;;;;;;;16.65;14.90;;;30.30;92.40;;;;;;1832167;77;21629;-73
2022/09/27 08:51:28;;;;;;;22.40;15.65;;;30.20;92.60;;;;;;1832841;77;21126;-73
2022/09/27 08:54:01;;;;;;;16.35;14.70;;;30.30;92.70;;;;;;1834825;78;21595;-72
2022/09/27 08:56:33;;;;;;;15.95;14.10;;;30.30;92.70;;;;;;1816551;78;21143;-73
2022/09/27 08:59:06;;;;;;;16.32;14.68;;;30.30;92.40;;;;;;1821689;78;21229;-73
2022/09/27 09:01:37;;;;;;;17.60;15.00;;;30.30;92.00;;;;;;1830519;78;21167;-73
2022/09/27 09:04:10;;;;;;;15.65;14.05;;;30.30;92.00;;;;;;1835862;78;21182;-73
2022/09/27 09:06:44;;;;;;;19.75;15.35;;;30.30;92.10;;;;;;1830500;78;21139;-73
2022/09/27 09:09:15;;;;;;;18.32;15.30;;;30.20;92.30;;;;;;1826206;78;21165;-73
2022/09/27 09:14:23;;;;;;;19.23;14.50;;;30.20;92.20;;;;;;1771437;80;21196;-72
2022/09/27 09:16:55;;;;;;;16.55;14.83;;;30.20;91.70;;;;;;1830551;78;21629;-72
2022/09/27 09:19:27;;;;;;;17.07;15.43;;;30.20;91.90;;;;;;1836599;78;21240;-72
2022/09/27 09:22:00;;;;;;;17.40;15.00;;;30.20;92.10;;;;;;1824818;77;21163;-71
2022/09/27 09:24:32;;;;;;;16.45;14.47;;;30.10;92.20;;;;;;1834180;78;21232;-72
2022/09/27 09:27:05;;;;;;;21.62;15.35;;;30.10;92.30;;;;;;1841234;78;21536;-72
2022/09/27 09:29:37;;;;;;;15.43;13.90;;;30.10;92.50;;;;;;1839723;77;21595;-70
2022/09/27 09:32:28;;;;;;;16.60;14.68;;;30.10;92.50;;;;;;1835129;78;21142;-71
2022/09/27 09:35:19;;;;;;;17.12;14.58;;;30.00;92.30;;;;;;1803658;79;21159;-71
2022/09/27 09:38:10;;;;;;;18.40;14.93;;;30.00;92.40;;;;;;1833273;78;21148;-71
2022/09/27 09:41:01;;;;;;;17.23;15.50;;;30.00;92.60;;;;;;1833880;77;21150;-71
2022/09/27 09:43:55;;;;;;;17.85;15.15;;;30.00;92.40;;;;;;1824557;77;21270;-71
2022/09/27 09:46:50;;;;;;;16.55;14.70;;;29.90;92.20;;;;;;1813143;77;21220;-71
2022/09/27 09:49:42;;;;;;;18.30;15.63;;;30.00;92.10;;;;;;1841367;78;21146;-72
2022/09/27 09:52:26;;;;;;;17.50;15.68;;;30.00;92.60;;;;;;1822602;78;21116;-72
2022/09/27 09:55:17;;;;;;;17.80;15.93;;;29.90;92.50;;;;;;1836294;78;21221;-71
2022/09/27 09:58:08;;;;;;;17.67;15.08;;;29.90;92.70;;;;;;1842033;78;21230;-72
2022/09/27 10:00:49;;;;;;;19.30;16.23;;;29.90;92.80;;;;;;1828992;78;21184;-71
2022/09/27 10:03:24;;;;;;;22.82;16.87;;;29.90;93.00;;;;;;1844092;77;21131;-72
2022/09/27 10:05:57;;;;;;;18.10;16.20;;;29.90;93.00;;;;;;1831864;78;21277;-72
2022/09/27 10:08:28;;;;;;;19.45;17.25;;;29.80;93.10;;;;;;1843859;78;21207;-72
2022/09/27 10:10:58;;;;;;;18.62;15.78;;;29.80;93.20;;;;;;1832719;78;21199;-72
2022/09/27 10:13:31;;;;;;;17.95;16.05;;;29.80;93.20;;;;;;1841319;77;21150;-72
2022/09/27 10:16:03;;;;;;;16.95;15.25;;;29.80;93.30;;;;;;1833721;77;21101;-72
2022/09/27 10:18:37;;;;;;;17.27;14.73;;;29.70;93.20;;;;;;1839652;77;21127;-72
2022/09/27 10:21:10;;;;;;;20.68;16.50;;;29.70;93.20;;;;;;1827927;78;21232;-71
2022/09/27 10:23:43;;;;;;;21.55;17.40;;;29.60;93.30;;;;;;1793811;79;21108;-71
2022/09/27 10:26:17;;;;;;;17.17;15.23;;;29.60;93.40;;;;;;1763692;81;21260;-72
2022/09/27 10:28:49;;;;;;;21.55;16.82;;;29.60;93.50;;;;;;1757603;80;21224;-84
2022/09/27 10:31:22;;;;;;;18.40;16.12;;;29.60;93.70;;;;;;1794805;78;21222;-82
2022/09/27 10:33:55;;;;;;;19.35;17.12;;;29.60;93.90;;;;;;1795768;80;21182;-81
2022/09/27 10:36:28;;;;;;;19.15;16.62;;;29.60;94.00;;;;;;1793547;80;21209;-84
2022/09/27 10:39:03;;;;;;;22.73;16.65;;;29.50;94.00;;;;;;1797374;79;21224;-82
2022/09/27 10:41:40;;;;;;;20.37;17.15;;;29.50;94.10;;;;;;1785819;80;21122;-81
2022/09/27 10:44:13;;;;;;;21.80;17.27;;;29.50;94.10;;;;;;1797858;80;21587;-83
2022/09/27 10:46:46;;;;;;;19.25;16.75;;;29.40;94.40;;;;;;1793129;79;21231;-81
2022/09/27 10:49:20;;;;;;;21.27;17.92;;;29.40;94.40;;;;;;1797938;79;21158;-82
2022/09/27 10:51:57;;;;;;;22.20;18.10;;;29.40;94.50;;;;;;1768568;81;21156;-82
2022/09/27 10:54:30;;;;;;;20.82;18.05;;;29.40;94.50;;;;;;1764345;80;21238;-84
2022/09/27 10:57:04;;;;;;;22.17;17.87;;;29.30;94.80;;;;;;1831941;76;21150;-83
2022/09/27 10:59:37;;;;;;;21.37;18.50;;;29.30;94.70;;;;;;1834210;78;21241;-82
2022/09/27 11:02:13;;;;;;;27.45;19.98;;;29.30;94.80;;;;;;1834895;78;21146;-83
2022/09/27 11:04:47;;;;;;;24.23;19.30;;;29.30;94.90;;;;;;1800769;79;21155;-83
2022/09/27 11:07:24;;;;;;;25.10;19.87;;;29.30;95.10;;;;;;1836571;77;21313;-82
2022/09/27 11:10:01;;;;;;;23.37;19.00;;;29.30;95.20;;;;;;1836482;77;21170;-83
2022/09/27 11:12:31;;;;;;;21.55;19.23;;;29.20;95.20;;;;;;1835442;78;21107;-85
2022/09/27 11:15:05;;;;;;;24.52;19.73;;;29.20;95.40;;;;;;1832507;77;21620;-82
2022/09/27 11:17:38;;;;;;;20.97;18.70;;;29.20;95.60;;;;;;1827011;78;21289;-83
2022/09/27 11:20:11;;;;;;;22.75;20.30;;;29.10;95.60;;;;;;1840918;77;21181;-82
2022/09/27 11:22:45;;;;;;;22.40;18.80;;;29.10;95.50;;;;;;1840197;77;21240;-83
2022/09/27 11:25:16;;;;;;;21.52;18.35;;;29.10;95.50;;;;;;1836795;76;21172;-84
2022/09/27 11:27:49;;;;;;;21.77;17.80;;;29.10;95.60;;;;;;1809777;78;21252;-81
2022/09/27 11:30:24;;;;;;;26.65;19.17;;;29.10;95.80;;;;;;1834919;78;21120;-83
2022/09/27 11:32:57;;;;;;;21.50;18.57;;;29.10;95.70;;;;;;1840988;77;21703;-83
2022/09/27 11:35:33;;;;;;;23.22;18.27;;;29.00;95.50;;;;;;1837070;77;21649;-82
2022/09/27 11:38:13;;;;;;;24.35;19.55;;;29.00;95.60;;;;;;1816964;78;21209;-80
2022/09/27 11:41:14;;;;;;;21.30;19.10;;;29.00;95.60;;;;;;1833771;78;21282;-85
2022/09/27 11:43:45;;;;;;;22.75;17.70;;;29.00;95.70;;;;;;1834488;78;21491;-83
2022/09/27 11:46:17;;;;;;;22.62;18.55;;;29.00;95.60;;;;;;1837516;77;21166;-83
2022/09/27 11:48:51;;;;;;;22.67;18.50;;;29.00;95.70;;;;;;1824462;77;21709;-82
2022/09/27 11:51:23;;;;;;;22.48;18.85;;;29.00;95.80;;;;;;1828191;77;21127;-81
2022/09/27 11:53:55;;;;;;;20.75;18.40;;;29.00;95.90;;;;;;1836434;77;21186;-83
2022/09/27 11:56:30;;;;;;;23.67;18.27;;;28.90;96.00;;;;;;1769535;79;21307;-84
2022/09/27 11:59:07;;;;;;;22.33;19.83;;;28.90;96.30;;;;;;1803574;77;21211;-82
2022/09/27 12:01:40;;;;;;;22.13;18.98;;;28.90;96.60;;;;;;1815495;77;21239;-82
2022/09/27 12:04:18;;;;;;;23.65;18.62;;;28.80;96.70;;;;;;1798957;78;21156;-82
2022/09/27 12:06:51;;;;;;;21.75;18.85;;;28.80;96.80;;;;;;1800733;78;21203;-76
2022/09/27 12:09:24;;;;;;;24.82;19.02;;;28.80;96.80;;;;;;1796194;78;21262;-79
2022/09/27 12:11:57;;;;;;;23.98;19.07;;;28.70;96.90;;;;;;1802202;78;21152;-78
2022/09/27 12:14:29;;;;;;;22.95;20.43;;;28.70;96.90;;;;;;1805498;78;21249;-81
2022/09/27 12:17:01;;;;;;;29.27;21.12;;;28.70;96.90;;;;;;1809172;79;21257;-80
2022/09/27 12:19:35;;;;;;;26.90;18.98;;;28.70;97.00;;;;;;1806924;78;22207;-81
2022/09/27 12:22:08;;;;;;;25.57;19.52;;;28.70;97.20;;;;;;1817144;79;21245;-79
2022/09/27 12:24:40;;;;;;;22.95;19.35;;;28.70;97.70;;;;;;1801522;79;21361;-79
2022/09/27 12:27:14;;;;;;;24.72;21.17;;;28.70;97.90;;;;;;1818494;78;21143;-78
2022/09/27 12:29:46;;;;;;;23.02;19.82;;;28.60;97.90;;;;;;1795267;80;21153;-78
2022/09/27 12:32:20;;;;;;;26.45;19.40;;;28.60;97.80;;;;;;1752319;80;21637;-78
2022/09/27 12:34:54;;;;;;;28.65;20.35;;;28.60;97.80;;;;;;1762769;80;21167;-80
2022/09/27 12:37:27;;;;;;;25.62;20.62;;;28.60;98.00;;;;;;1754905;80;21624;-78
2022/09/27 12:40:00;;;;;;;27.07;21.52;;;28.60;98.10;;;;;;1793391;79;21200;-78
2022/09/27 12:42:33;;;;;;;27.05;19.90;;;28.60;98.00;;;;;;1793387;80;21180;-78
2022/09/27 12:45:04;;;;;;;29.42;21.27;;;28.50;98.30;;;;;;1794498;78;21595;-78
2022/09/27 12:47:36;;;;;;;26.65;21.02;;;28.50;98.60;;;;;;1791537;79;21626;-79
2022/09/27 12:50:27;;;;;;;24.80;20.32;;;28.50;98.90;;;;;;1806889;78;21147;-78
2022/09/27 12:53:22;;;;;;;31.30;22.82;;;28.50;99.10;;;;;;1824888;77;21193;-76
2022/09/27 12:56:05;;;;;;;26.48;21.87;;;28.40;99.20;;;;;;1826044;77;21130;-78
2022/09/27 12:58:56;;;;;;;29.57;23.07;;;28.40;99.50;;;;;;1826030;77;21165;-78
2022/09/27 13:01:29;;;;;;;30.43;23.42;;;28.40;99.90;;;;;;1823362;78;22276;-78
2022/09/27 13:04:09;;;;;;;32.48;23.92;;;28.40;99.90;;;;;;1763363;81;21165;-76